sensor_id;sensor_type;location;lat;lon;timestamp;temperature;humidity
9919;DHT22;4998;51.024;13.828;2023-04-24T00:01:00;17.80;68.00
9919;DHT22;4998;51.024;13.828;2023-04-24T00:03:27;17.80;68.20
9919;DHT22;4998;51.024;13.828;2023-04-24T00:05:54;17.80;68.30
9919;DHT22;4998;51.024;13.828;2023-04-24T00:08:21;17.80;68.50
9919;DHT22;4998;51.024;13.828;2023-04-24T00:10:49;17.80;68.50
9919;DHT22;4998;51.024;13.828;2023-04-24T00:13:19;17.80;68.70
9919;DHT22;4998;51.024;13.828;2023-04-24T00:15:46;17.80;68.90
9919;DHT22;4998;51.024;13.828;2023-04-24T00:18:13;17.80;68.90
9919;DHT22;4998;51.024;13.828;2023-04-24T00:20:40;17.80;69.00
9919;DHT22;4998;51.024;13.828;2023-04-24T00:23:09;17.70;69.10
9919;DHT22;4998;51.024;13.828;2023-04-24T00:25:36;17.80;69.20
9919;DHT22;4998;51.024;13.828;2023-04-24T00:28:03;17.80;69.30
9919;DHT22;4998;51.024;13.828;2023-04-24T00:30:31;17.80;69.40
9919;DHT22;4998;51.024;13.828;2023-04-24T00:32:58;17.80;69.60
9919;DHT22;4998;51.024;13.828;2023-04-24T00:35:25;17.80;69.60
9919;DHT22;4998;51.024;13.828;2023-04-24T00:37:52;17.80;69.70
9919;DHT22;4998;51.024;13.828;2023-04-24T00:40:20;17.80;69.80
9919;DHT22;4998;51.024;13.828;2023-04-24T00:42:47;17.80;69.90
9919;DHT22;4998;51.024;13.828;2023-04-24T00:45:15;17.70;69.70
9919;DHT22;4998;51.024;13.828;2023-04-24T00:47:45;17.70;69.60
9919;DHT22;4998;51.024;13.828;2023-04-24T00:50:14;17.60;69.90
9919;DHT22;4998;51.024;13.828;2023-04-24T00:52:41;17.50;70.00
9919;DHT22;4998;51.024;13.828;2023-04-24T00:55:09;17.50;70.10
9919;DHT22;4998;51.024;13.828;2023-04-24T00:57:36;17.50;70.50
9919;DHT22;4998;51.024;13.828;2023-04-24T01:00:05;17.40;70.60
9919;DHT22;4998;51.024;13.828;2023-04-24T01:02:38;17.40;71.00
9919;DHT22;4998;51.024;13.828;2023-04-24T01:05:11;17.40;71.10
9919;DHT22;4998;51.024;13.828;2023-04-24T01:07:39;17.40;71.40
9919;DHT22;4998;51.024;13.828;2023-04-24T01:10:10;17.40;71.50
9919;DHT22;4998;51.024;13.828;2023-04-24T01:12:37;17.40;71.60
9919;DHT22;4998;51.024;13.828;2023-04-24T01:15:05;17.40;71.60
9919;DHT22;4998;51.024;13.828;2023-04-24T01:17:33;17.40;71.90
9919;DHT22;4998;51.024;13.828;2023-04-24T01:20:00;17.30;71.70
9919;DHT22;4998;51.024;13.828;2023-04-24T01:22:33;17.30;72.00
9919;DHT22;4998;51.024;13.828;2023-04-24T01:25:00;17.30;72.20
9919;DHT22;4998;51.024;13.828;2023-04-24T01:27:27;17.30;72.20
9919;DHT22;4998;51.024;13.828;2023-04-24T01:29:54;17.30;72.40
9919;DHT22;4998;51.024;13.828;2023-04-24T01:32:22;17.30;72.70
9919;DHT22;4998;51.024;13.828;2023-04-24T01:34:49;17.30;72.70
9919;DHT22;4998;51.024;13.828;2023-04-24T01:37:17;17.20;72.80
9919;DHT22;4998;51.024;13.828;2023-04-24T01:39:45;17.30;72.90
9919;DHT22;4998;51.024;13.828;2023-04-24T01:42:13;17.30;73.30
9919;DHT22;4998;51.024;13.828;2023-04-24T01:44:40;17.30;73.40
9919;DHT22;4998;51.024;13.828;2023-04-24T01:47:08;17.30;73.50
9919;DHT22;4998;51.024;13.828;2023-04-24T01:49:37;17.30;73.50
9919;DHT22;4998;51.024;13.828;2023-04-24T01:52:04;17.30;73.70
9919;DHT22;4998;51.024;13.828;2023-04-24T01:54:32;17.20;73.50
9919;DHT22;4998;51.024;13.828;2023-04-24T01:57:00;17.30;73.70
9919;DHT22;4998;51.024;13.828;2023-04-24T01:59:28;17.30;74.00
9919;DHT22;4998;51.024;13.828;2023-04-24T02:01:56;17.20;74.00
9919;DHT22;4998;51.024;13.828;2023-04-24T02:04:23;17.20;73.90
9919;DHT22;4998;51.024;13.828;2023-04-24T02:06:50;17.20;74.00
9919;DHT22;4998;51.024;13.828;2023-04-24T02:09:17;17.20;74.20
9919;DHT22;4998;51.024;13.828;2023-04-24T02:11:44;17.10;74.30
9919;DHT22;4998;51.024;13.828;2023-04-24T02:14:13;17.10;74.60
9919;DHT22;4998;51.024;13.828;2023-04-24T02:16:40;17.10;74.80
9919;DHT22;4998;51.024;13.828;2023-04-24T02:19:08;17.10;74.80
9919;DHT22;4998;51.024;13.828;2023-04-24T02:21:35;17.10;75.00
9919;DHT22;4998;51.024;13.828;2023-04-24T02:24:02;17.00;75.10
9919;DHT22;4998;51.024;13.828;2023-04-24T02:26:29;17.10;75.40
9919;DHT22;4998;51.024;13.828;2023-04-24T02:28:57;17.00;75.30
9919;DHT22;4998;51.024;13.828;2023-04-24T02:31:25;16.90;75.30
9919;DHT22;4998;51.024;13.828;2023-04-24T02:33:52;17.00;75.70
9919;DHT22;4998;51.024;13.828;2023-04-24T02:36:19;17.00;75.70
9919;DHT22;4998;51.024;13.828;2023-04-24T02:38:46;17.00;75.90
9919;DHT22;4998;51.024;13.828;2023-04-24T02:41:13;17.00;76.00
9919;DHT22;4998;51.024;13.828;2023-04-24T02:43:40;17.00;76.10
9919;DHT22;4998;51.024;13.828;2023-04-24T02:46:07;17.00;76.10
9919;DHT22;4998;51.024;13.828;2023-04-24T02:48:36;17.00;76.40
9919;DHT22;4998;51.024;13.828;2023-04-24T02:51:03;16.90;76.70
9919;DHT22;4998;51.024;13.828;2023-04-24T02:53:30;16.90;76.80
9919;DHT22;4998;51.024;13.828;2023-04-24T02:55:57;16.90;77.00
9919;DHT22;4998;51.024;13.828;2023-04-24T02:58:24;16.90;77.10
9919;DHT22;4998;51.024;13.828;2023-04-24T03:00:53;16.90;77.30
9919;DHT22;4998;51.024;13.828;2023-04-24T03:03:21;16.90;77.70
9919;DHT22;4998;51.024;13.828;2023-04-24T03:05:49;16.90;77.50
9919;DHT22;4998;51.024;13.828;2023-04-24T03:08:17;16.90;77.80
9919;DHT22;4998;51.024;13.828;2023-04-24T03:10:44;16.90;77.80
9919;DHT22;4998;51.024;13.828;2023-04-24T03:13:11;16.90;77.80
9919;DHT22;4998;51.024;13.828;2023-04-24T03:15:38;16.80;77.90
9919;DHT22;4998;51.024;13.828;2023-04-24T03:18:05;16.80;78.10
9919;DHT22;4998;51.024;13.828;2023-04-24T03:20:32;16.80;78.10
9919;DHT22;4998;51.024;13.828;2023-04-24T03:23:00;16.80;78.40
9919;DHT22;4998;51.024;13.828;2023-04-24T03:25:27;16.80;78.70
9919;DHT22;4998;51.024;13.828;2023-04-24T03:27:54;16.80;78.60
9919;DHT22;4998;51.024;13.828;2023-04-24T03:30:21;16.80;78.70
9919;DHT22;4998;51.024;13.828;2023-04-24T03:32:48;16.80;78.80
9919;DHT22;4998;51.024;13.828;2023-04-24T03:35:15;16.80;78.90
9919;DHT22;4998;51.024;13.828;2023-04-24T03:37:42;16.80;79.00
9919;DHT22;4998;51.024;13.828;2023-04-24T03:40:11;16.70;79.10
9919;DHT22;4998;51.024;13.828;2023-04-24T03:42:38;16.70;79.40
9919;DHT22;4998;51.024;13.828;2023-04-24T03:45:06;16.70;79.30
9919;DHT22;4998;51.024;13.828;2023-04-24T03:47:34;16.80;79.70
9919;DHT22;4998;51.024;13.828;2023-04-24T03:50:01;16.70;79.50
9919;DHT22;4998;51.024;13.828;2023-04-24T03:52:28;16.70;79.60
9919;DHT22;4998;51.024;13.828;2023-04-24T03:54:55;16.70;79.60
9919;DHT22;4998;51.024;13.828;2023-04-24T03:57:24;16.70;79.90
9919;DHT22;4998;51.024;13.828;2023-04-24T03:59:51;16.70;81.00
9919;DHT22;4998;51.024;13.828;2023-04-24T04:02:19;16.70;80.10
9919;DHT22;4998;51.024;13.828;2023-04-24T04:04:46;16.70;80.30
9919;DHT22;4998;51.024;13.828;2023-04-24T04:07:13;16.60;80.30
9919;DHT22;4998;51.024;13.828;2023-04-24T04:09:40;16.60;80.50
9919;DHT22;4998;51.024;13.828;2023-04-24T04:12:07;16.60;80.60
9919;DHT22;4998;51.024;13.828;2023-04-24T04:14:35;16.60;80.80
9919;DHT22;4998;51.024;13.828;2023-04-24T04:17:02;16.60;81.10
9919;DHT22;4998;51.024;13.828;2023-04-24T04:19:29;16.60;81.10
9919;DHT22;4998;51.024;13.828;2023-04-24T04:21:56;16.60;81.30
9919;DHT22;4998;51.024;13.828;2023-04-24T04:24:24;16.60;81.20
9919;DHT22;4998;51.024;13.828;2023-04-24T04:26:52;16.60;81.50
9919;DHT22;4998;51.024;13.828;2023-04-24T04:29:22;16.60;81.70
9919;DHT22;4998;51.024;13.828;2023-04-24T04:31:51;16.70;81.80
9919;DHT22;4998;51.024;13.828;2023-04-24T04:34:18;16.70;82.00
9919;DHT22;4998;51.024;13.828;2023-04-24T04:36:45;16.70;81.80
9919;DHT22;4998;51.024;13.828;2023-04-24T04:39:12;16.70;81.90
9919;DHT22;4998;51.024;13.828;2023-04-24T04:41:40;16.70;82.00
9919;DHT22;4998;51.024;13.828;2023-04-24T04:44:07;16.80;82.10
9919;DHT22;4998;51.024;13.828;2023-04-24T04:46:35;16.80;82.00
9919;DHT22;4998;51.024;13.828;2023-04-24T04:49:05;16.90;81.90
9919;DHT22;4998;51.024;13.828;2023-04-24T04:51:34;16.90;81.70
9919;DHT22;4998;51.024;13.828;2023-04-24T04:54:01;16.90;81.70
9919;DHT22;4998;51.024;13.828;2023-04-24T04:56:28;16.90;81.50
9919;DHT22;4998;51.024;13.828;2023-04-24T04:58:55;17.00;81.60
9919;DHT22;4998;51.024;13.828;2023-04-24T05:01:22;17.10;81.50
9919;DHT22;4998;51.024;13.828;2023-04-24T05:03:51;17.10;81.50
9919;DHT22;4998;51.024;13.828;2023-04-24T05:06:19;17.10;81.40
9919;DHT22;4998;51.024;13.828;2023-04-24T05:08:46;17.20;81.60
9919;DHT22;4998;51.024;13.828;2023-04-24T05:11:14;17.20;81.30
9919;DHT22;4998;51.024;13.828;2023-04-24T05:13:41;17.20;81.20
9919;DHT22;4998;51.024;13.828;2023-04-24T05:16:08;17.30;81.30
9919;DHT22;4998;51.024;13.828;2023-04-24T05:18:35;17.40;81.30
9919;DHT22;4998;51.024;13.828;2023-04-24T05:21:02;17.40;81.20
9919;DHT22;4998;51.024;13.828;2023-04-24T05:23:31;17.50;81.00
9919;DHT22;4998;51.024;13.828;2023-04-24T05:25:58;17.50;81.00
9919;DHT22;4998;51.024;13.828;2023-04-24T05:28:25;17.60;81.10
9919;DHT22;4998;51.024;13.828;2023-04-24T05:30:54;17.60;80.80
9919;DHT22;4998;51.024;13.828;2023-04-24T05:33:21;17.70;80.50
9919;DHT22;4998;51.024;13.828;2023-04-24T05:35:49;17.70;80.20
9919;DHT22;4998;51.024;13.828;2023-04-24T05:38:16;17.80;80.20
9919;DHT22;4998;51.024;13.828;2023-04-24T05:40:46;17.80;79.80
9919;DHT22;4998;51.024;13.828;2023-04-24T05:43:13;17.90;79.60
9919;DHT22;4998;51.024;13.828;2023-04-24T05:45:40;17.90;79.20
9919;DHT22;4998;51.024;13.828;2023-04-24T05:48:07;17.90;78.90
9919;DHT22;4998;51.024;13.828;2023-04-24T05:50:34;18.00;78.90
9919;DHT22;4998;51.024;13.828;2023-04-24T05:53:02;18.00;78.50
9919;DHT22;4998;51.024;13.828;2023-04-24T05:55:31;18.10;78.20
9919;DHT22;4998;51.024;13.828;2023-04-24T05:57:59;18.10;77.50
9919;DHT22;4998;51.024;13.828;2023-04-24T06:00:27;18.10;77.40
9919;DHT22;4998;51.024;13.828;2023-04-24T06:02:55;18.20;77.40
9919;DHT22;4998;51.024;13.828;2023-04-24T06:05:22;18.30;77.10
9919;DHT22;4998;51.024;13.828;2023-04-24T06:07:49;18.30;76.50
9919;DHT22;4998;51.024;13.828;2023-04-24T06:10:17;18.40;76.30
9919;DHT22;4998;51.024;13.828;2023-04-24T06:12:44;18.40;76.60
9919;DHT22;4998;51.024;13.828;2023-04-24T06:15:13;18.50;75.40
9919;DHT22;4998;51.024;13.828;2023-04-24T06:17:40;18.50;74.90
9919;DHT22;4998;51.024;13.828;2023-04-24T06:20:07;18.60;75.10
9919;DHT22;4998;51.024;13.828;2023-04-24T06:22:37;18.60;74.90
9919;DHT22;4998;51.024;13.828;2023-04-24T06:25:06;18.70;74.70
9919;DHT22;4998;51.024;13.828;2023-04-24T06:27:33;18.80;74.60
9919;DHT22;4998;51.024;13.828;2023-04-24T06:30:01;18.80;74.50
9919;DHT22;4998;51.024;13.828;2023-04-24T06:32:29;18.90;74.60
9919;DHT22;4998;51.024;13.828;2023-04-24T06:34:57;19.00;74.30
9919;DHT22;4998;51.024;13.828;2023-04-24T06:37:24;19.10;74.40
9919;DHT22;4998;51.024;13.828;2023-04-24T06:39:51;19.20;74.40
9919;DHT22;4998;51.024;13.828;2023-04-24T06:42:18;19.40;74.50
9919;DHT22;4998;51.024;13.828;2023-04-24T06:44:46;19.50;74.30
9919;DHT22;4998;51.024;13.828;2023-04-24T06:47:13;19.60;73.70
9919;DHT22;4998;51.024;13.828;2023-04-24T06:49:42;19.80;73.30
9919;DHT22;4998;51.024;13.828;2023-04-24T06:52:09;19.80;72.10
9919;DHT22;4998;51.024;13.828;2023-04-24T06:54:36;19.90;71.70
9919;DHT22;4998;51.024;13.828;2023-04-24T06:57:03;20.00;71.40
9919;DHT22;4998;51.024;13.828;2023-04-24T06:59:31;20.10;71.10
9919;DHT22;4998;51.024;13.828;2023-04-24T07:01:58;20.20;70.30
9919;DHT22;4998;51.024;13.828;2023-04-24T07:04:25;20.30;69.90
9919;DHT22;4998;51.024;13.828;2023-04-24T07:06:55;20.30;69.10
9919;DHT22;4998;51.024;13.828;2023-04-24T07:09:24;20.40;67.60
9919;DHT22;4998;51.024;13.828;2023-04-24T07:11:52;20.40;67.20
9919;DHT22;4998;51.024;13.828;2023-04-24T07:14:19;20.40;66.60
9919;DHT22;4998;51.024;13.828;2023-04-24T07:16:47;20.40;66.20
9919;DHT22;4998;51.024;13.828;2023-04-24T07:19:14;20.40;65.70
9919;DHT22;4998;51.024;13.828;2023-04-24T07:21:41;20.40;65.10
9919;DHT22;4998;51.024;13.828;2023-04-24T07:24:09;20.30;64.90
9919;DHT22;4998;51.024;13.828;2023-04-24T07:26:38;20.30;64.90
9919;DHT22;4998;51.024;13.828;2023-04-24T07:29:06;20.20;65.30
9919;DHT22;4998;51.024;13.828;2023-04-24T07:31:33;20.30;65.40
9919;DHT22;4998;51.024;13.828;2023-04-24T07:34:01;20.30;64.80
9919;DHT22;4998;51.024;13.828;2023-04-24T07:36:28;20.30;64.40
9919;DHT22;4998;51.024;13.828;2023-04-24T07:38:56;20.30;64.40
9919;DHT22;4998;51.024;13.828;2023-04-24T07:41:24;20.40;64.20
9919;DHT22;4998;51.024;13.828;2023-04-24T07:43:53;20.40;64.60
9919;DHT22;4998;51.024;13.828;2023-04-24T07:46:20;20.40;65.00
9919;DHT22;4998;51.024;13.828;2023-04-24T07:48:49;20.50;65.30
9919;DHT22;4998;51.024;13.828;2023-04-24T07:51:16;20.50;65.10
9919;DHT22;4998;51.024;13.828;2023-04-24T07:53:43;20.50;64.50
9919;DHT22;4998;51.024;13.828;2023-04-24T07:56:10;20.60;63.90
9919;DHT22;4998;51.024;13.828;2023-04-24T07:58:39;20.60;63.80
9919;DHT22;4998;51.024;13.828;2023-04-24T08:01:06;20.60;63.20
9919;DHT22;4998;51.024;13.828;2023-04-24T08:03:33;20.70;63.50
9919;DHT22;4998;51.024;13.828;2023-04-24T08:06:00;20.70;63.40
9919;DHT22;4998;51.024;13.828;2023-04-24T08:08:27;20.70;63.30
9919;DHT22;4998;51.024;13.828;2023-04-24T08:10:55;20.70;63.00
9919;DHT22;4998;51.024;13.828;2023-04-24T08:13:22;20.80;63.20
9919;DHT22;4998;51.024;13.828;2023-04-24T08:15:51;20.90;63.10
9919;DHT22;4998;51.024;13.828;2023-04-24T08:18:18;20.90;62.40
9919;DHT22;4998;51.024;13.828;2023-04-24T08:20:45;21.00;62.40
9919;DHT22;4998;51.024;13.828;2023-04-24T08:23:12;21.10;62.10
9919;DHT22;4998;51.024;13.828;2023-04-24T08:25:39;21.10;61.70
9919;DHT22;4998;51.024;13.828;2023-04-24T08:28:07;21.10;61.60
9919;DHT22;4998;51.024;13.828;2023-04-24T08:30:35;21.20;61.20
9919;DHT22;4998;51.024;13.828;2023-04-24T08:33:05;21.20;60.30
9919;DHT22;4998;51.024;13.828;2023-04-24T08:35:32;21.20;60.00
9919;DHT22;4998;51.024;13.828;2023-04-24T08:38:00;21.20;60.10
9919;DHT22;4998;51.024;13.828;2023-04-24T08:40:28;21.20;59.70
9919;DHT22;4998;51.024;13.828;2023-04-24T08:42:56;21.20;59.50
9919;DHT22;4998;51.024;13.828;2023-04-24T08:45:24;21.20;59.20
9919;DHT22;4998;51.024;13.828;2023-04-24T08:47:53;21.20;59.20
9919;DHT22;4998;51.024;13.828;2023-04-24T08:50:22;21.00;58.80
9919;DHT22;4998;51.024;13.828;2023-04-24T08:52:50;21.10;58.60
9919;DHT22;4998;51.024;13.828;2023-04-24T08:55:19;21.10;58.40
9919;DHT22;4998;51.024;13.828;2023-04-24T08:57:51;21.10;58.30
9919;DHT22;4998;51.024;13.828;2023-04-24T09:00:20;21.10;58.30
9919;DHT22;4998;51.024;13.828;2023-04-24T09:02:49;21.00;57.50
9919;DHT22;4998;51.024;13.828;2023-04-24T09:05:17;21.00;57.20
9919;DHT22;4998;51.024;13.828;2023-04-24T09:07:49;20.90;57.10
9919;DHT22;4998;51.024;13.828;2023-04-24T09:10:19;20.90;57.10
9919;DHT22;4998;51.024;13.828;2023-04-24T09:12:46;20.80;57.40
9919;DHT22;4998;51.024;13.828;2023-04-24T09:15:14;20.80;57.40
9919;DHT22;4998;51.024;13.828;2023-04-24T09:17:41;20.90;57.40
9919;DHT22;4998;51.024;13.828;2023-04-24T09:20:09;20.90;56.60
9919;DHT22;4998;51.024;13.828;2023-04-24T09:22:36;20.90;56.60
9919;DHT22;4998;51.024;13.828;2023-04-24T09:25:06;20.90;56.00
9919;DHT22;4998;51.024;13.828;2023-04-24T09:27:34;21.00;55.90
9919;DHT22;4998;51.024;13.828;2023-04-24T09:30:02;21.00;55.70
9919;DHT22;4998;51.024;13.828;2023-04-24T09:32:30;21.00;55.90
9919;DHT22;4998;51.024;13.828;2023-04-24T09:35:08;21.00;55.70
9919;DHT22;4998;51.024;13.828;2023-04-24T09:37:36;21.10;55.10
9919;DHT22;4998;51.024;13.828;2023-04-24T09:40:15;21.00;54.70
9919;DHT22;4998;51.024;13.828;2023-04-24T09:42:44;21.00;54.00
9919;DHT22;4998;51.024;13.828;2023-04-24T09:45:12;20.90;54.10
9919;DHT22;4998;51.024;13.828;2023-04-24T09:47:40;20.90;53.90
9919;DHT22;4998;51.024;13.828;2023-04-24T09:50:12;20.80;54.00
9919;DHT22;4998;51.024;13.828;2023-04-24T09:52:41;20.80;53.90
9919;DHT22;4998;51.024;13.828;2023-04-24T09:55:16;20.70;53.70
9919;DHT22;4998;51.024;13.828;2023-04-24T09:57:54;20.70;53.80
9919;DHT22;4998;51.024;13.828;2023-04-24T10:00:23;20.60;53.70
9919;DHT22;4998;51.024;13.828;2023-04-24T10:02:54;20.60;53.90
9919;DHT22;4998;51.024;13.828;2023-04-24T10:05:23;20.60;53.90
9919;DHT22;4998;51.024;13.828;2023-04-24T10:07:51;20.50;53.80
9919;DHT22;4998;51.024;13.828;2023-04-24T10:10:19;20.50;53.80
9919;DHT22;4998;51.024;13.828;2023-04-24T10:46:30;20.70;53.60
9919;DHT22;4998;51.024;13.828;2023-04-24T10:48:57;20.80;54.30
9919;DHT22;4998;51.024;13.828;2023-04-24T10:51:45;20.80;53.80
9919;DHT22;4998;51.024;13.828;2023-04-24T10:54:29;20.90;53.70
9919;DHT22;4998;51.024;13.828;2023-04-24T10:57:26;21.00;53.50
9919;DHT22;4998;51.024;13.828;2023-04-24T11:00:16;21.10;53.30
9919;DHT22;4998;51.024;13.828;2023-04-24T11:02:46;21.20;53.10
9919;DHT22;4998;51.024;13.828;2023-04-24T11:05:19;21.30;53.00
9919;DHT22;4998;51.024;13.828;2023-04-24T11:08:09;21.40;53.00
9919;DHT22;4998;51.024;13.828;2023-04-24T11:10:39;21.40;52.40
9919;DHT22;4998;51.024;13.828;2023-04-24T11:13:06;21.40;52.30
9919;DHT22;4998;51.024;13.828;2023-04-24T11:15:34;21.40;52.20
9919;DHT22;4998;51.024;13.828;2023-04-24T11:18:04;21.40;51.90
9919;DHT22;4998;51.024;13.828;2023-04-24T11:20:31;21.30;51.60
9919;DHT22;4998;51.024;13.828;2023-04-24T11:23:03;21.30;51.80
9919;DHT22;4998;51.024;13.828;2023-04-24T11:25:32;21.20;51.60
9919;DHT22;4998;51.024;13.828;2023-04-24T11:28:14;21.20;51.80
9919;DHT22;4998;51.024;13.828;2023-04-24T11:30:42;21.10;51.70
9919;DHT22;4998;51.024;13.828;2023-04-24T11:33:11;21.10;51.90
9919;DHT22;4998;51.024;13.828;2023-04-24T11:35:40;21.00;51.90
9919;DHT22;4998;51.024;13.828;2023-04-24T11:38:07;20.90;51.80
9919;DHT22;4998;51.024;13.828;2023-04-24T11:40:34;20.80;51.80
9919;DHT22;4998;51.024;13.828;2023-04-24T11:43:01;20.70;51.90
9919;DHT22;4998;51.024;13.828;2023-04-24T11:45:30;20.70;52.30
9919;DHT22;4998;51.024;13.828;2023-04-24T11:47:58;20.60;52.40
9919;DHT22;4998;51.024;13.828;2023-04-24T11:50:27;20.60;52.90
9919;DHT22;4998;51.024;13.828;2023-04-24T11:52:55;20.60;52.90
9919;DHT22;4998;51.024;13.828;2023-04-24T11:55:23;20.60;53.00
9919;DHT22;4998;51.024;13.828;2023-04-24T11:57:53;20.70;53.10
9919;DHT22;4998;51.024;13.828;2023-04-24T12:00:23;20.70;52.80
9919;DHT22;4998;51.024;13.828;2023-04-24T12:02:51;20.70;52.90
9919;DHT22;4998;51.024;13.828;2023-04-24T12:05:22;20.80;53.00
9919;DHT22;4998;51.024;13.828;2023-04-24T12:07:56;20.90;53.10
9919;DHT22;4998;51.024;13.828;2023-04-24T12:10:24;21.00;53.30
9919;DHT22;4998;51.024;13.828;2023-04-24T12:12:51;21.00;53.30
9919;DHT22;4998;51.024;13.828;2023-04-24T12:15:20;21.10;52.60
9919;DHT22;4998;51.024;13.828;2023-04-24T12:17:47;21.10;52.60
9919;DHT22;4998;51.024;13.828;2023-04-24T12:20:14;21.20;52.40
9919;DHT22;4998;51.024;13.828;2023-04-24T12:22:45;21.20;52.00
9919;DHT22;4998;51.024;13.828;2023-04-24T12:25:15;21.30;51.60
9919;DHT22;4998;51.024;13.828;2023-04-24T12:27:42;21.30;51.20
9919;DHT22;4998;51.024;13.828;2023-04-24T12:30:12;21.40;50.10
9919;DHT22;4998;51.024;13.828;2023-04-24T12:32:44;21.30;48.40
9919;DHT22;4998;51.024;13.828;2023-04-24T12:35:12;21.20;48.20
9919;DHT22;4998;51.024;13.828;2023-04-24T12:37:42;21.10;48.00
9919;DHT22;4998;51.024;13.828;2023-04-24T12:40:11;21.00;47.80
9919;DHT22;4998;51.024;13.828;2023-04-24T12:42:45;20.90;47.90
9919;DHT22;4998;51.024;13.828;2023-04-24T12:45:12;20.80;47.20
9919;DHT22;4998;51.024;13.828;2023-04-24T12:47:40;20.70;47.30
9919;DHT22;4998;51.024;13.828;2023-04-24T12:50:08;20.60;47.30
9919;DHT22;4998;51.024;13.828;2023-04-24T12:52:35;20.60;47.40
9919;DHT22;4998;51.024;13.828;2023-04-24T12:55:03;20.60;47.10
9919;DHT22;4998;51.024;13.828;2023-04-24T12:57:34;20.50;46.90
9919;DHT22;4998;51.024;13.828;2023-04-24T13:00:06;20.50;46.80
9919;DHT22;4998;51.024;13.828;2023-04-24T13:02:34;20.50;46.60
9919;DHT22;4998;51.024;13.828;2023-04-24T13:05:02;20.50;46.80
9919;DHT22;4998;51.024;13.828;2023-04-24T13:07:29;20.50;46.60
9919;DHT22;4998;51.024;13.828;2023-04-24T13:09:56;20.40;46.70
9919;DHT22;4998;51.024;13.828;2023-04-24T13:12:24;20.40;46.20
9919;DHT22;4998;51.024;13.828;2023-04-24T13:14:51;20.40;45.80
9919;DHT22;4998;51.024;13.828;2023-04-24T13:17:21;20.40;46.10
9919;DHT22;4998;51.024;13.828;2023-04-24T13:19:50;20.30;45.80
9919;DHT22;4998;51.024;13.828;2023-04-24T13:22:18;20.30;45.70
9919;DHT22;4998;51.024;13.828;2023-04-24T13:24:45;20.30;46.00
9919;DHT22;4998;51.024;13.828;2023-04-24T13:27:14;20.30;45.80
9919;DHT22;4998;51.024;13.828;2023-04-24T13:29:41;20.40;45.20
9919;DHT22;4998;51.024;13.828;2023-04-24T13:32:08;20.40;45.00
9919;DHT22;4998;51.024;13.828;2023-04-24T13:34:36;20.40;45.00
9919;DHT22;4998;51.024;13.828;2023-04-24T13:37:04;20.50;44.70
9919;DHT22;4998;51.024;13.828;2023-04-24T13:39:32;20.50;44.60
9919;DHT22;4998;51.024;13.828;2023-04-24T13:41:58;20.60;44.50
9919;DHT22;4998;51.024;13.828;2023-04-24T13:44:26;20.60;44.00
9919;DHT22;4998;51.024;13.828;2023-04-24T13:46:54;20.70;43.70
9919;DHT22;4998;51.024;13.828;2023-04-24T13:49:23;20.70;43.70
9919;DHT22;4998;51.024;13.828;2023-04-24T13:51:53;20.70;43.50
9919;DHT22;4998;51.024;13.828;2023-04-24T13:54:20;20.60;43.20
9919;DHT22;4998;51.024;13.828;2023-04-24T13:56:48;20.70;43.10
9919;DHT22;4998;51.024;13.828;2023-04-24T13:59:15;20.60;42.40
9919;DHT22;4998;51.024;13.828;2023-04-24T14:01:42;20.50;42.30
9919;DHT22;4998;51.024;13.828;2023-04-24T14:04:10;20.50;42.80
9919;DHT22;4998;51.024;13.828;2023-04-24T14:06:37;20.40;42.80
9919;DHT22;4998;51.024;13.828;2023-04-24T14:09:06;20.40;42.60
9919;DHT22;4998;51.024;13.828;2023-04-24T14:11:33;20.40;42.70
9919;DHT22;4998;51.024;13.828;2023-04-24T14:14:01;20.40;42.60
9919;DHT22;4998;51.024;13.828;2023-04-24T14:16:28;20.40;42.70
9919;DHT22;4998;51.024;13.828;2023-04-24T14:18:55;20.40;42.80
9919;DHT22;4998;51.024;13.828;2023-04-24T14:21:22;20.40;42.80
9919;DHT22;4998;51.024;13.828;2023-04-24T14:23:49;20.50;43.00
9919;DHT22;4998;51.024;13.828;2023-04-24T14:26:19;20.50;42.90
9919;DHT22;4998;51.024;13.828;2023-04-24T14:28:46;20.60;42.60
9919;DHT22;4998;51.024;13.828;2023-04-24T14:31:13;20.60;42.50
9919;DHT22;4998;51.024;13.828;2023-04-24T14:33:40;20.60;41.90
9919;DHT22;4998;51.024;13.828;2023-04-24T14:36:07;20.60;42.00
9919;DHT22;4998;51.024;13.828;2023-04-24T14:38:34;20.70;42.10
9919;DHT22;4998;51.024;13.828;2023-04-24T14:41:01;20.70;42.20
9919;DHT22;4998;51.024;13.828;2023-04-24T14:43:36;20.70;42.10
9919;DHT22;4998;51.024;13.828;2023-04-24T14:46:03;20.70;41.90
9919;DHT22;4998;51.024;13.828;2023-04-24T14:48:30;20.70;41.60
9919;DHT22;4998;51.024;13.828;2023-04-24T14:50:57;20.70;41.90
9919;DHT22;4998;51.024;13.828;2023-04-24T14:53:25;20.70;42.10
9919;DHT22;4998;51.024;13.828;2023-04-24T14:55:52;20.80;42.10
9919;DHT22;4998;51.024;13.828;2023-04-24T14:58:19;20.80;42.10
9919;DHT22;4998;51.024;13.828;2023-04-24T15:00:47;20.90;42.40
9919;DHT22;4998;51.024;13.828;2023-04-24T15:03:19;20.90;41.80
9919;DHT22;4998;51.024;13.828;2023-04-24T15:05:47;21.00;41.60
9919;DHT22;4998;51.024;13.828;2023-04-24T15:08:14;21.00;41.20
9919;DHT22;4998;51.024;13.828;2023-04-24T15:10:42;21.00;41.20
9919;DHT22;4998;51.024;13.828;2023-04-24T15:13:09;21.00;41.10
9919;DHT22;4998;51.024;13.828;2023-04-24T15:15:36;20.90;40.50
9919;DHT22;4998;51.024;13.828;2023-04-24T15:18:05;20.90;40.10
9919;DHT22;4998;51.024;13.828;2023-04-24T15:20:33;20.90;40.20
9919;DHT22;4998;51.024;13.828;2023-04-24T15:23:00;20.80;40.30
9919;DHT22;4998;51.024;13.828;2023-04-24T15:25:27;20.70;40.30
9919;DHT22;4998;51.024;13.828;2023-04-24T15:27:54;20.70;40.50
9919;DHT22;4998;51.024;13.828;2023-04-24T15:30:21;20.60;40.60
9919;DHT22;4998;51.024;13.828;2023-04-24T15:32:48;20.60;40.30
9919;DHT22;4998;51.024;13.828;2023-04-24T15:35:17;20.50;39.60
9919;DHT22;4998;51.024;13.828;2023-04-24T15:37:44;20.50;39.20
9919;DHT22;4998;51.024;13.828;2023-04-24T15:40:12;20.40;39.00
9919;DHT22;4998;51.024;13.828;2023-04-24T15:42:42;20.30;38.80
9919;DHT22;4998;51.024;13.828;2023-04-24T15:45:10;20.20;39.80
9919;DHT22;4998;51.024;13.828;2023-04-24T15:47:38;20.10;39.90
9919;DHT22;4998;51.024;13.828;2023-04-24T15:50:06;20.10;40.40
9919;DHT22;4998;51.024;13.828;2023-04-24T15:52:36;20.00;40.30
9919;DHT22;4998;51.024;13.828;2023-04-24T15:55:04;20.00;40.50
9919;DHT22;4998;51.024;13.828;2023-04-24T15:57:31;20.00;40.50
9919;DHT22;4998;51.024;13.828;2023-04-24T15:59:58;19.90;40.30
9919;DHT22;4998;51.024;13.828;2023-04-24T16:02:25;19.90;40.40
9919;DHT22;4998;51.024;13.828;2023-04-24T16:04:53;19.80;40.20
9919;DHT22;4998;51.024;13.828;2023-04-24T16:07:20;19.70;40.30
9919;DHT22;4998;51.024;13.828;2023-04-24T16:09:49;19.70;40.40
9919;DHT22;4998;51.024;13.828;2023-04-24T16:12:16;19.60;40.40
9919;DHT22;4998;51.024;13.828;2023-04-24T16:14:43;19.50;40.50
9919;DHT22;4998;51.024;13.828;2023-04-24T16:17:10;19.50;40.90
9919;DHT22;4998;51.024;13.828;2023-04-24T16:19:37;19.40;41.00
9919;DHT22;4998;51.024;13.828;2023-04-24T16:22:04;19.40;41.20
9919;DHT22;4998;51.024;13.828;2023-04-24T16:24:31;19.40;41.40